sensor_id;sensor_type;location;lat;lon;timestamp;P1;durP1;ratioP1;P2;durP2;ratioP2
826;SDS011;395;48.132;11.608;2023-06-22T00:01:49;5.40;;;3.90;;
826;SDS011;395;48.132;11.608;2023-06-22T00:04:14;6.70;;;3.90;;
826;SDS011;395;48.132;11.608;2023-06-22T00:06:40;7.90;;;3.63;;
826;SDS011;395;48.132;11.608;2023-06-22T00:09:06;4.30;;;3.70;;
826;SDS011;395;48.132;11.608;2023-06-22T00:11:32;6.70;;;4.70;;
826;SDS011;395;48.132;11.608;2023-06-22T00:13:59;7.50;;;4.00;;
826;SDS011;395;48.132;11.608;2023-06-22T00:16:25;6.73;;;4.30;;
826;SDS011;395;48.132;11.608;2023-06-22T00:18:50;4.83;;;3.73;;
826;SDS011;395;48.132;11.608;2023-06-22T00:21:16;5.93;;;3.90;;
826;SDS011;395;48.132;11.608;2023-06-22T00:23:42;7.27;;;4.50;;
826;SDS011;395;48.132;11.608;2023-06-22T00:26:08;5.80;;;3.83;;
826;SDS011;395;48.132;11.608;2023-06-22T00:28:34;5.00;;;3.80;;
826;SDS011;395;48.132;11.608;2023-06-22T00:30:59;4.73;;;4.20;;
826;SDS011;395;48.132;11.608;2023-06-22T00:33:25;5.93;;;3.90;;
826;SDS011;395;48.132;11.608;2023-06-22T00:35:53;8.10;;;4.70;;
826;SDS011;395;48.132;11.608;2023-06-22T00:38:19;6.30;;;3.83;;
826;SDS011;395;48.132;11.608;2023-06-22T00:40:45;6.70;;;4.23;;
826;SDS011;395;48.132;11.608;2023-06-22T00:43:10;4.87;;;4.07;;
826;SDS011;395;48.132;11.608;2023-06-22T00:45:36;9.27;;;4.00;;
826;SDS011;395;48.132;11.608;2023-06-22T00:48:03;5.53;;;4.03;;
826;SDS011;395;48.132;11.608;2023-06-22T00:50:30;4.47;;;4.03;;
826;SDS011;395;48.132;11.608;2023-06-22T00:52:59;5.67;;;4.10;;
826;SDS011;395;48.132;11.608;2023-06-22T00:55:35;4.70;;;3.60;;
826;SDS011;395;48.132;11.608;2023-06-22T00:58:06;7.67;;;4.40;;
826;SDS011;395;48.132;11.608;2023-06-22T01:00:35;5.93;;;3.40;;
826;SDS011;395;48.132;11.608;2023-06-22T01:03:01;9.17;;;3.87;;
826;SDS011;395;48.132;11.608;2023-06-22T01:05:27;6.53;;;4.30;;
826;SDS011;395;48.132;11.608;2023-06-22T01:13:07;5.63;;;3.50;;
826;SDS011;395;48.132;11.608;2023-06-22T01:15:41;5.83;;;4.10;;
826;SDS011;395;48.132;11.608;2023-06-22T01:18:14;6.23;;;3.90;;
826;SDS011;395;48.132;11.608;2023-06-22T01:20:42;4.50;;;3.97;;
826;SDS011;395;48.132;11.608;2023-06-22T01:23:16;6.07;;;3.47;;
826;SDS011;395;48.132;11.608;2023-06-22T01:29:04;7.00;;;4.30;;
826;SDS011;395;48.132;11.608;2023-06-22T01:31:32;5.00;;;4.13;;
826;SDS011;395;48.132;11.608;2023-06-22T01:34:01;6.30;;;4.10;;
826;SDS011;395;48.132;11.608;2023-06-22T01:36:29;7.60;;;4.50;;
826;SDS011;395;48.132;11.608;2023-06-22T01:38:56;4.23;;;3.60;;
826;SDS011;395;48.132;11.608;2023-06-22T01:41:25;6.23;;;3.97;;
826;SDS011;395;48.132;11.608;2023-06-22T01:43:52;5.13;;;3.63;;
826;SDS011;395;48.132;11.608;2023-06-22T01:46:19;5.83;;;3.70;;
826;SDS011;395;48.132;11.608;2023-06-22T01:48:46;5.87;;;4.07;;
826;SDS011;395;48.132;11.608;2023-06-22T01:51:12;4.70;;;3.60;;
826;SDS011;395;48.132;11.608;2023-06-22T01:53:38;5.23;;;3.77;;
826;SDS011;395;48.132;11.608;2023-06-22T01:56:04;7.63;;;3.80;;
826;SDS011;395;48.132;11.608;2023-06-22T01:58:30;4.07;;;3.67;;
826;SDS011;395;48.132;11.608;2023-06-22T02:01:09;5.30;;;3.60;;
826;SDS011;395;48.132;11.608;2023-06-22T02:03:47;4.90;;;3.90;;
826;SDS011;395;48.132;11.608;2023-06-22T02:06:21;10.47;;;4.70;;
826;SDS011;395;48.132;11.608;2023-06-22T02:08:54;5.17;;;4.10;;
826;SDS011;395;48.132;11.608;2023-06-22T02:11:24;6.90;;;4.50;;
826;SDS011;395;48.132;11.608;2023-06-22T02:13:55;5.73;;;4.20;;
826;SDS011;395;48.132;11.608;2023-06-22T02:16:22;6.13;;;4.00;;
826;SDS011;395;48.132;11.608;2023-06-22T02:18:49;5.60;;;3.93;;
826;SDS011;395;48.132;11.608;2023-06-22T02:21:18;5.50;;;4.63;;
826;SDS011;395;48.132;11.608;2023-06-22T02:23:44;6.93;;;4.10;;
826;SDS011;395;48.132;11.608;2023-06-22T02:26:10;6.90;;;4.10;;
826;SDS011;395;48.132;11.608;2023-06-22T02:28:36;8.83;;;4.50;;
826;SDS011;395;48.132;11.608;2023-06-22T02:31:02;5.17;;;4.20;;
826;SDS011;395;48.132;11.608;2023-06-22T02:33:28;6.50;;;4.27;;
826;SDS011;395;48.132;11.608;2023-06-22T02:35:53;6.40;;;4.60;;
826;SDS011;395;48.132;11.608;2023-06-22T02:38:19;5.93;;;4.53;;
826;SDS011;395;48.132;11.608;2023-06-22T02:40:45;5.83;;;4.53;;
826;SDS011;395;48.132;11.608;2023-06-22T02:43:11;6.40;;;4.43;;
826;SDS011;395;48.132;11.608;2023-06-22T02:45:37;6.23;;;4.70;;
826;SDS011;395;48.132;11.608;2023-06-22T02:48:02;5.47;;;4.33;;
826;SDS011;395;48.132;11.608;2023-06-22T02:50:28;6.87;;;4.90;;
826;SDS011;395;48.132;11.608;2023-06-22T02:52:54;13.20;;;5.40;;
826;SDS011;395;48.132;11.608;2023-06-22T02:55:19;5.83;;;5.20;;
826;SDS011;395;48.132;11.608;2023-06-22T02:57:45;7.40;;;4.63;;
826;SDS011;395;48.132;11.608;2023-06-22T03:00:12;13.13;;;4.87;;
826;SDS011;395;48.132;11.608;2023-06-22T03:02:43;10.93;;;4.80;;
826;SDS011;395;48.132;11.608;2023-06-22T03:05:10;9.27;;;5.53;;
826;SDS011;395;48.132;11.608;2023-06-22T03:07:39;7.50;;;4.80;;
826;SDS011;395;48.132;11.608;2023-06-22T03:10:05;7.30;;;4.93;;
826;SDS011;395;48.132;11.608;2023-06-22T03:12:32;11.40;;;4.30;;
826;SDS011;395;48.132;11.608;2023-06-22T03:14:58;7.77;;;5.50;;
826;SDS011;395;48.132;11.608;2023-06-22T03:17:23;7.60;;;5.03;;
826;SDS011;395;48.132;11.608;2023-06-22T03:19:49;9.60;;;5.23;;
826;SDS011;395;48.132;11.608;2023-06-22T03:22:15;7.43;;;4.73;;
826;SDS011;395;48.132;11.608;2023-06-22T03:24:40;5.90;;;4.80;;
826;SDS011;395;48.132;11.608;2023-06-22T03:27:06;9.33;;;4.77;;
826;SDS011;395;48.132;11.608;2023-06-22T03:29:32;8.83;;;5.50;;
826;SDS011;395;48.132;11.608;2023-06-22T03:31:58;7.37;;;5.20;;
826;SDS011;395;48.132;11.608;2023-06-22T03:34:23;6.97;;;5.10;;
826;SDS011;395;48.132;11.608;2023-06-22T03:36:49;8.70;;;5.00;;
826;SDS011;395;48.132;11.608;2023-06-22T03:39:14;7.53;;;5.63;;
826;SDS011;395;48.132;11.608;2023-06-22T03:41:40;11.20;;;5.30;;
826;SDS011;395;48.132;11.608;2023-06-22T03:44:06;9.47;;;5.17;;
826;SDS011;395;48.132;11.608;2023-06-22T03:46:31;7.73;;;5.17;;
826;SDS011;395;48.132;11.608;2023-06-22T03:48:57;9.93;;;5.80;;
826;SDS011;395;48.132;11.608;2023-06-22T03:51:23;5.80;;;4.63;;
826;SDS011;395;48.132;11.608;2023-06-22T03:53:48;6.40;;;5.57;;
826;SDS011;395;48.132;11.608;2023-06-22T03:56:14;8.77;;;5.50;;
826;SDS011;395;48.132;11.608;2023-06-22T03:58:45;6.77;;;5.00;;
826;SDS011;395;48.132;11.608;2023-06-22T04:01:10;6.70;;;5.40;;
826;SDS011;395;48.132;11.608;2023-06-22T04:03:36;7.07;;;5.37;;
826;SDS011;395;48.132;11.608;2023-06-22T04:06:02;6.20;;;4.90;;
826;SDS011;395;48.132;11.608;2023-06-22T04:08:28;6.30;;;5.13;;
826;SDS011;395;48.132;11.608;2023-06-22T04:10:54;8.17;;;5.33;;
826;SDS011;395;48.132;11.608;2023-06-22T04:13:20;7.43;;;4.97;;
826;SDS011;395;48.132;11.608;2023-06-22T04:15:45;13.80;;;6.10;;
826;SDS011;395;48.132;11.608;2023-06-22T04:18:11;5.37;;;4.87;;
826;SDS011;395;48.132;11.608;2023-06-22T04:20:38;8.57;;;4.87;;
826;SDS011;395;48.132;11.608;2023-06-22T04:23:04;7.97;;;5.67;;
826;SDS011;395;48.132;11.608;2023-06-22T04:25:29;8.07;;;6.17;;
826;SDS011;395;48.132;11.608;2023-06-22T04:27:55;8.83;;;5.80;;
826;SDS011;395;48.132;11.608;2023-06-22T04:30:21;8.87;;;5.33;;
826;SDS011;395;48.132;11.608;2023-06-22T04:32:47;8.97;;;6.10;;
826;SDS011;395;48.132;11.608;2023-06-22T04:35:23;11.07;;;5.90;;
826;SDS011;395;48.132;11.608;2023-06-22T04:37:49;10.40;;;6.07;;
826;SDS011;395;48.132;11.608;2023-06-22T04:40:15;7.37;;;5.80;;
826;SDS011;395;48.132;11.608;2023-06-22T04:42:41;9.30;;;6.00;;
826;SDS011;395;48.132;11.608;2023-06-22T04:45:17;7.80;;;5.70;;
826;SDS011;395;48.132;11.608;2023-06-22T04:47:42;7.37;;;5.83;;
826;SDS011;395;48.132;11.608;2023-06-22T04:50:10;8.67;;;6.13;;
826;SDS011;395;48.132;11.608;2023-06-22T04:52:37;8.10;;;6.10;;
826;SDS011;395;48.132;11.608;2023-06-22T04:55:03;8.60;;;6.03;;
826;SDS011;395;48.132;11.608;2023-06-22T04:57:29;7.47;;;6.10;;
826;SDS011;395;48.132;11.608;2023-06-22T05:00:00;8.20;;;5.23;;
826;SDS011;395;48.132;11.608;2023-06-22T05:02:41;9.40;;;6.10;;
826;SDS011;395;48.132;11.608;2023-06-22T05:05:07;9.80;;;6.60;;
826;SDS011;395;48.132;11.608;2023-06-22T05:07:33;8.73;;;5.23;;
826;SDS011;395;48.132;11.608;2023-06-22T05:10:00;9.83;;;6.37;;
826;SDS011;395;48.132;11.608;2023-06-22T05:12:30;10.43;;;6.63;;
826;SDS011;395;48.132;11.608;2023-06-22T05:14:56;9.10;;;5.20;;
826;SDS011;395;48.132;11.608;2023-06-22T05:17:21;10.47;;;6.63;;
826;SDS011;395;48.132;11.608;2023-06-22T05:19:47;7.27;;;6.37;;
826;SDS011;395;48.132;11.608;2023-06-22T05:22:16;8.83;;;6.47;;
826;SDS011;395;48.132;11.608;2023-06-22T05:24:42;9.83;;;6.30;;
826;SDS011;395;48.132;11.608;2023-06-22T05:27:08;9.53;;;6.57;;
826;SDS011;395;48.132;11.608;2023-06-22T05:29:34;9.60;;;7.17;;
826;SDS011;395;48.132;11.608;2023-06-22T05:32:01;7.70;;;6.90;;
826;SDS011;395;48.132;11.608;2023-06-22T05:34:27;8.47;;;7.40;;
826;SDS011;395;48.132;11.608;2023-06-22T05:36:52;10.73;;;7.30;;
826;SDS011;395;48.132;11.608;2023-06-22T05:39:18;7.77;;;6.97;;
826;SDS011;395;48.132;11.608;2023-06-22T05:41:44;14.03;;;7.10;;
826;SDS011;395;48.132;11.608;2023-06-22T05:44:10;11.10;;;7.70;;
826;SDS011;395;48.132;11.608;2023-06-22T05:46:36;8.80;;;7.00;;
826;SDS011;395;48.132;11.608;2023-06-22T05:49:05;9.10;;;7.00;;
826;SDS011;395;48.132;11.608;2023-06-22T05:51:30;9.90;;;7.60;;
826;SDS011;395;48.132;11.608;2023-06-22T05:53:56;14.73;;;7.93;;
826;SDS011;395;48.132;11.608;2023-06-22T05:56:21;9.60;;;7.70;;
826;SDS011;395;48.132;11.608;2023-06-22T05:58:47;14.73;;;8.13;;
826;SDS011;395;48.132;11.608;2023-06-22T06:01:13;11.30;;;8.10;;
826;SDS011;395;48.132;11.608;2023-06-22T06:03:40;10.93;;;7.70;;
826;SDS011;395;48.132;11.608;2023-06-22T06:06:08;10.10;;;8.03;;
826;SDS011;395;48.132;11.608;2023-06-22T06:08:35;8.80;;;7.67;;
826;SDS011;395;48.132;11.608;2023-06-22T06:11:02;7.73;;;6.90;;
826;SDS011;395;48.132;11.608;2023-06-22T06:13:27;12.00;;;7.63;;
826;SDS011;395;48.132;11.608;2023-06-22T06:15:53;10.77;;;7.27;;
826;SDS011;395;48.132;11.608;2023-06-22T06:18:20;11.53;;;6.70;;
826;SDS011;395;48.132;11.608;2023-06-22T06:20:46;11.57;;;8.37;;
826;SDS011;395;48.132;11.608;2023-06-22T06:23:12;9.17;;;7.97;;
826;SDS011;395;48.132;11.608;2023-06-22T06:25:38;12.10;;;7.90;;
826;SDS011;395;48.132;11.608;2023-06-22T06:28:03;10.57;;;7.43;;
826;SDS011;395;48.132;11.608;2023-06-22T06:30:30;11.80;;;7.47;;
826;SDS011;395;48.132;11.608;2023-06-22T06:32:55;11.40;;;6.53;;
826;SDS011;395;48.132;11.608;2023-06-22T06:35:21;16.43;;;8.20;;
826;SDS011;395;48.132;11.608;2023-06-22T06:37:48;14.10;;;8.03;;
826;SDS011;395;48.132;11.608;2023-06-22T06:40:14;11.47;;;7.90;;
826;SDS011;395;48.132;11.608;2023-06-22T06:42:41;9.53;;;7.30;;
826;SDS011;395;48.132;11.608;2023-06-22T06:45:15;9.70;;;7.30;;
826;SDS011;395;48.132;11.608;2023-06-22T06:47:44;13.20;;;8.20;;
826;SDS011;395;48.132;11.608;2023-06-22T06:50:11;11.00;;;7.63;;
826;SDS011;395;48.132;11.608;2023-06-22T06:52:37;10.00;;;7.03;;
826;SDS011;395;48.132;11.608;2023-06-22T06:55:03;12.53;;;9.00;;
826;SDS011;395;48.132;11.608;2023-06-22T06:57:30;11.87;;;7.10;;
826;SDS011;395;48.132;11.608;2023-06-22T06:59:56;10.57;;;8.20;;
826;SDS011;395;48.132;11.608;2023-06-22T07:02:22;9.60;;;8.40;;
826;SDS011;395;48.132;11.608;2023-06-22T07:04:48;19.93;;;8.60;;
826;SDS011;395;48.132;11.608;2023-06-22T07:07:14;11.40;;;7.90;;
826;SDS011;395;48.132;11.608;2023-06-22T07:09:41;10.27;;;7.50;;
826;SDS011;395;48.132;11.608;2023-06-22T07:12:06;11.80;;;7.70;;
826;SDS011;395;48.132;11.608;2023-06-22T07:14:32;17.00;;;9.33;;
826;SDS011;395;48.132;11.608;2023-06-22T07:16:58;10.77;;;7.67;;
826;SDS011;395;48.132;11.608;2023-06-22T07:19:24;11.73;;;8.57;;
826;SDS011;395;48.132;11.608;2023-06-22T07:21:51;16.37;;;8.80;;
826;SDS011;395;48.132;11.608;2023-06-22T07:24:18;11.63;;;7.80;;
826;SDS011;395;48.132;11.608;2023-06-22T07:26:45;18.73;;;9.97;;
826;SDS011;395;48.132;11.608;2023-06-22T07:29:13;13.17;;;8.50;;
826;SDS011;395;48.132;11.608;2023-06-22T07:31:39;12.07;;;9.30;;
826;SDS011;395;48.132;11.608;2023-06-22T07:34:06;11.67;;;8.80;;
826;SDS011;395;48.132;11.608;2023-06-22T07:36:31;11.10;;;8.53;;
826;SDS011;395;48.132;11.608;2023-06-22T07:38:57;11.93;;;9.20;;
826;SDS011;395;48.132;11.608;2023-06-22T07:41:23;11.80;;;8.10;;
826;SDS011;395;48.132;11.608;2023-06-22T07:43:48;10.90;;;8.60;;
826;SDS011;395;48.132;11.608;2023-06-22T07:46:15;9.90;;;8.40;;
826;SDS011;395;48.132;11.608;2023-06-22T07:48:41;14.90;;;8.60;;
826;SDS011;395;48.132;11.608;2023-06-22T07:51:08;8.97;;;7.93;;
826;SDS011;395;48.132;11.608;2023-06-22T07:53:36;12.03;;;8.90;;
826;SDS011;395;48.132;11.608;2023-06-22T07:56:02;14.77;;;8.60;;
826;SDS011;395;48.132;11.608;2023-06-22T07:58:32;12.07;;;8.37;;
826;SDS011;395;48.132;11.608;2023-06-22T08:00:58;9.97;;;8.30;;
826;SDS011;395;48.132;11.608;2023-06-22T08:03:24;12.37;;;9.13;;
826;SDS011;395;48.132;11.608;2023-06-22T08:05:49;9.70;;;8.60;;
826;SDS011;395;48.132;11.608;2023-06-22T08:08:15;13.43;;;8.60;;
826;SDS011;395;48.132;11.608;2023-06-22T08:10:41;14.53;;;8.83;;
826;SDS011;395;48.132;11.608;2023-06-22T08:13:08;15.63;;;9.30;;
826;SDS011;395;48.132;11.608;2023-06-22T08:15:35;16.70;;;8.80;;
826;SDS011;395;48.132;11.608;2023-06-22T08:18:01;11.57;;;8.50;;
826;SDS011;395;48.132;11.608;2023-06-22T08:20:27;17.33;;;9.03;;
826;SDS011;395;48.132;11.608;2023-06-22T08:22:53;15.50;;;8.60;;
826;SDS011;395;48.132;11.608;2023-06-22T08:25:22;12.80;;;8.10;;
826;SDS011;395;48.132;11.608;2023-06-22T08:27:48;11.40;;;9.10;;
826;SDS011;395;48.132;11.608;2023-06-22T08:30:14;17.57;;;9.83;;
826;SDS011;395;48.132;11.608;2023-06-22T08:32:40;15.53;;;8.20;;
826;SDS011;395;48.132;11.608;2023-06-22T08:35:06;15.47;;;9.00;;
826;SDS011;395;48.132;11.608;2023-06-22T08:37:36;12.43;;;8.43;;
826;SDS011;395;48.132;11.608;2023-06-22T08:40:04;15.03;;;7.70;;
826;SDS011;395;48.132;11.608;2023-06-22T08:42:33;12.67;;;8.90;;
826;SDS011;395;48.132;11.608;2023-06-22T08:44:59;17.90;;;8.53;;
826;SDS011;395;48.132;11.608;2023-06-22T08:47:24;11.53;;;8.33;;
826;SDS011;395;48.132;11.608;2023-06-22T08:49:50;16.23;;;8.13;;
826;SDS011;395;48.132;11.608;2023-06-22T08:52:17;11.60;;;8.77;;
826;SDS011;395;48.132;11.608;2023-06-22T08:54:43;12.53;;;7.57;;
826;SDS011;395;48.132;11.608;2023-06-22T08:57:09;12.00;;;8.50;;
826;SDS011;395;48.132;11.608;2023-06-22T08:59:35;11.93;;;7.60;;
826;SDS011;395;48.132;11.608;2023-06-22T09:02:01;10.30;;;7.63;;
826;SDS011;395;48.132;11.608;2023-06-22T09:04:26;11.47;;;8.37;;
826;SDS011;395;48.132;11.608;2023-06-22T09:06:52;11.70;;;8.27;;
826;SDS011;395;48.132;11.608;2023-06-22T09:09:18;13.40;;;7.87;;
826;SDS011;395;48.132;11.608;2023-06-22T09:11:44;13.03;;;7.60;;
826;SDS011;395;48.132;11.608;2023-06-22T09:14:10;9.97;;;7.40;;
826;SDS011;395;48.132;11.608;2023-06-22T09:16:36;10.83;;;7.77;;
826;SDS011;395;48.132;11.608;2023-06-22T09:19:02;11.50;;;7.53;;
826;SDS011;395;48.132;11.608;2023-06-22T09:21:28;17.23;;;8.33;;
826;SDS011;395;48.132;11.608;2023-06-22T09:23:54;12.70;;;7.83;;
826;SDS011;395;48.132;11.608;2023-06-22T09:26:20;8.53;;;7.73;;
826;SDS011;395;48.132;11.608;2023-06-22T09:28:47;13.67;;;8.13;;
826;SDS011;395;48.132;11.608;2023-06-22T09:31:13;9.10;;;7.63;;
826;SDS011;395;48.132;11.608;2023-06-22T09:33:39;16.07;;;7.93;;
826;SDS011;395;48.132;11.608;2023-06-22T09:36:06;13.63;;;7.80;;
826;SDS011;395;48.132;11.608;2023-06-22T09:38:35;11.37;;;8.33;;
826;SDS011;395;48.132;11.608;2023-06-22T09:41:01;11.43;;;8.00;;
826;SDS011;395;48.132;11.608;2023-06-22T09:43:27;10.87;;;7.87;;
826;SDS011;395;48.132;11.608;2023-06-22T09:45:52;13.23;;;7.90;;
826;SDS011;395;48.132;11.608;2023-06-22T09:48:18;11.43;;;8.03;;
826;SDS011;395;48.132;11.608;2023-06-22T09:50:44;9.60;;;7.73;;
826;SDS011;395;48.132;11.608;2023-06-22T09:53:09;11.13;;;7.97;;
826;SDS011;395;48.132;11.608;2023-06-22T09:55:35;16.13;;;8.40;;
826;SDS011;395;48.132;11.608;2023-06-22T09:58:01;11.27;;;7.70;;
826;SDS011;395;48.132;11.608;2023-06-22T10:00:26;11.90;;;8.10;;
826;SDS011;395;48.132;11.608;2023-06-22T10:02:52;8.97;;;7.70;;
826;SDS011;395;48.132;11.608;2023-06-22T10:05:17;12.60;;;7.43;;
826;SDS011;395;48.132;11.608;2023-06-22T10:07:43;13.60;;;8.70;;
826;SDS011;395;48.132;11.608;2023-06-22T10:10:10;9.47;;;8.03;;
826;SDS011;395;48.132;11.608;2023-06-22T10:12:36;12.03;;;7.83;;
826;SDS011;395;48.132;11.608;2023-06-22T10:15:02;11.67;;;8.13;;
826;SDS011;395;48.132;11.608;2023-06-22T10:17:28;12.80;;;7.87;;
826;SDS011;395;48.132;11.608;2023-06-22T10:19:53;11.47;;;8.33;;
826;SDS011;395;48.132;11.608;2023-06-22T10:22:19;8.50;;;7.70;;
826;SDS011;395;48.132;11.608;2023-06-22T10:24:45;10.83;;;7.90;;
826;SDS011;395;48.132;11.608;2023-06-22T10:27:11;14.23;;;8.30;;
826;SDS011;395;48.132;11.608;2023-06-22T10:29:37;9.40;;;8.40;;
826;SDS011;395;48.132;11.608;2023-06-22T10:32:03;11.07;;;7.77;;
826;SDS011;395;48.132;11.608;2023-06-22T10:34:29;12.93;;;7.47;;
826;SDS011;395;48.132;11.608;2023-06-22T10:36:54;8.90;;;7.87;;
826;SDS011;395;48.132;11.608;2023-06-22T10:39:20;12.60;;;7.90;;
826;SDS011;395;48.132;11.608;2023-06-22T10:41:46;13.83;;;7.73;;
826;SDS011;395;48.132;11.608;2023-06-22T10:44:11;13.63;;;8.37;;
826;SDS011;395;48.132;11.608;2023-06-22T10:46:38;12.30;;;8.30;;
826;SDS011;395;48.132;11.608;2023-06-22T10:49:04;15.10;;;8.73;;
826;SDS011;395;48.132;11.608;2023-06-22T10:51:30;13.17;;;7.97;;
826;SDS011;395;48.132;11.608;2023-06-22T10:53:56;11.63;;;7.37;;
826;SDS011;395;48.132;11.608;2023-06-22T10:56:22;11.70;;;8.00;;
826;SDS011;395;48.132;11.608;2023-06-22T10:58:48;10.60;;;7.33;;
826;SDS011;395;48.132;11.608;2023-06-22T11:01:13;11.30;;;7.63;;
826;SDS011;395;48.132;11.608;2023-06-22T11:03:39;10.93;;;8.20;;
826;SDS011;395;48.132;11.608;2023-06-22T11:06:05;12.93;;;7.63;;
826;SDS011;395;48.132;11.608;2023-06-22T11:08:30;10.97;;;7.63;;
826;SDS011;395;48.132;11.608;2023-06-22T11:10:56;8.00;;;7.20;;
826;SDS011;395;48.132;11.608;2023-06-22T11:13:22;9.80;;;7.83;;
826;SDS011;395;48.132;11.608;2023-06-22T11:15:47;10.27;;;8.20;;
826;SDS011;395;48.132;11.608;2023-06-22T11:18:13;10.50;;;7.50;;
826;SDS011;395;48.132;11.608;2023-06-22T11:20:39;16.63;;;8.60;;
826;SDS011;395;48.132;11.608;2023-06-22T11:23:05;11.30;;;7.70;;
826;SDS011;395;48.132;11.608;2023-06-22T11:25:31;14.13;;;8.80;;
826;SDS011;395;48.132;11.608;2023-06-22T11:28:00;13.67;;;7.87;;
826;SDS011;395;48.132;11.608;2023-06-22T11:30:29;10.00;;;8.03;;
826;SDS011;395;48.132;11.608;2023-06-22T11:32:56;12.70;;;8.07;;
826;SDS011;395;48.132;11.608;2023-06-22T11:35:22;15.03;;;8.37;;
826;SDS011;395;48.132;11.608;2023-06-22T11:37:48;9.50;;;7.77;;
826;SDS011;395;48.132;11.608;2023-06-22T11:40:14;14.20;;;8.50;;
826;SDS011;395;48.132;11.608;2023-06-22T11:42:39;12.37;;;8.27;;
826;SDS011;395;48.132;11.608;2023-06-22T11:45:06;16.00;;;8.70;;
826;SDS011;395;48.132;11.608;2023-06-22T11:47:32;16.17;;;9.23;;
826;SDS011;395;48.132;11.608;2023-06-22T11:49:57;12.30;;;9.10;;
826;SDS011;395;48.132;11.608;2023-06-22T11:52:23;11.10;;;8.10;;
826;SDS011;395;48.132;11.608;2023-06-22T11:54:49;12.70;;;10.87;;
826;SDS011;395;48.132;11.608;2023-06-22T11:57:14;12.13;;;10.70;;
826;SDS011;395;48.132;11.608;2023-06-22T11:59:40;13.70;;;10.67;;
826;SDS011;395;48.132;11.608;2023-06-22T12:02:05;11.20;;;8.50;;
826;SDS011;395;48.132;11.608;2023-06-22T12:04:32;11.60;;;8.30;;
826;SDS011;395;48.132;11.608;2023-06-22T12:06:58;10.70;;;9.30;;
826;SDS011;395;48.132;11.608;2023-06-22T12:09:24;9.23;;;8.23;;
826;SDS011;395;48.132;11.608;2023-06-22T12:11:49;10.30;;;9.00;;
826;SDS011;395;48.132;11.608;2023-06-22T12:14:15;13.00;;;8.60;;
826;SDS011;395;48.132;11.608;2023-06-22T12:16:40;12.50;;;7.97;;
826;SDS011;395;48.132;11.608;2023-06-22T12:19:07;14.33;;;8.63;;
826;SDS011;395;48.132;11.608;2023-06-22T12:21:32;11.70;;;9.00;;
826;SDS011;395;48.132;11.608;2023-06-22T12:23:58;10.00;;;7.97;;
826;SDS011;395;48.132;11.608;2023-06-22T12:26:23;11.03;;;8.80;;
826;SDS011;395;48.132;11.608;2023-06-22T12:28:49;11.07;;;8.07;;
826;SDS011;395;48.132;11.608;2023-06-22T12:31:15;11.77;;;8.10;;
826;SDS011;395;48.132;11.608;2023-06-22T12:33:42;12.17;;;8.20;;
826;SDS011;395;48.132;11.608;2023-06-22T12:36:08;14.10;;;8.17;;
826;SDS011;395;48.132;11.608;2023-06-22T12:38:33;12.53;;;8.17;;
826;SDS011;395;48.132;11.608;2023-06-22T12:40:59;9.50;;;8.20;;
826;SDS011;395;48.132;11.608;2023-06-22T12:43:24;15.40;;;8.93;;
826;SDS011;395;48.132;11.608;2023-06-22T12:45:50;11.33;;;8.10;;
826;SDS011;395;48.132;11.608;2023-06-22T12:48:16;10.40;;;7.80;;
826;SDS011;395;48.132;11.608;2023-06-22T12:50:42;16.97;;;8.50;;
826;SDS011;395;48.132;11.608;2023-06-22T12:53:07;11.90;;;8.47;;
826;SDS011;395;48.132;11.608;2023-06-22T12:55:33;11.30;;;7.60;;
826;SDS011;395;48.132;11.608;2023-06-22T12:57:59;14.10;;;7.90;;
826;SDS011;395;48.132;11.608;2023-06-22T13:00:24;7.90;;;7.10;;
826;SDS011;395;48.132;11.608;2023-06-22T13:02:50;11.20;;;7.80;;
826;SDS011;395;48.132;11.608;2023-06-22T13:05:15;9.67;;;7.33;;
826;SDS011;395;48.132;11.608;2023-06-22T13:07:41;9.63;;;7.40;;
826;SDS011;395;48.132;11.608;2023-06-22T13:10:07;10.70;;;7.57;;
826;SDS011;395;48.132;11.608;2023-06-22T13:12:33;11.93;;;7.20;;
826;SDS011;395;48.132;11.608;2023-06-22T13:14:59;10.53;;;7.57;;
826;SDS011;395;48.132;11.608;2023-06-22T13:17:25;12.17;;;7.43;;
826;SDS011;395;48.132;11.608;2023-06-22T13:19:50;12.60;;;7.30;;
826;SDS011;395;48.132;11.608;2023-06-22T13:22:31;7.70;;;6.90;;
826;SDS011;395;48.132;11.608;2023-06-22T13:24:59;10.83;;;7.23;;
826;SDS011;395;48.132;11.608;2023-06-22T13:27:25;11.90;;;7.00;;
826;SDS011;395;48.132;11.608;2023-06-22T13:29:51;12.83;;;7.50;;
826;SDS011;395;48.132;11.608;2023-06-22T13:32:17;10.90;;;6.70;;
826;SDS011;395;48.132;11.608;2023-06-22T13:34:43;9.97;;;7.70;;
826;SDS011;395;48.132;11.608;2023-06-22T13:37:08;15.03;;;7.33;;
826;SDS011;395;48.132;11.608;2023-06-22T13:39:34;10.20;;;7.00;;
826;SDS011;395;48.132;11.608;2023-06-22T13:42:00;9.13;;;7.07;;
826;SDS011;395;48.132;11.608;2023-06-22T13:44:25;14.80;;;7.20;;
826;SDS011;395;48.132;11.608;2023-06-22T13:46:54;9.10;;;6.97;;
826;SDS011;395;48.132;11.608;2023-06-22T13:49:20;12.23;;;7.80;;
826;SDS011;395;48.132;11.608;2023-06-22T13:51:46;10.60;;;7.33;;
826;SDS011;395;48.132;11.608;2023-06-22T13:54:13;8.80;;;7.13;;
826;SDS011;395;48.132;11.608;2023-06-22T13:56:39;10.37;;;6.93;;
826;SDS011;395;48.132;11.608;2023-06-22T13:59:05;11.73;;;6.80;;
826;SDS011;395;48.132;11.608;2023-06-22T14:01:34;13.90;;;7.40;;
826;SDS011;395;48.132;11.608;2023-06-22T14:04:00;9.83;;;7.53;;
826;SDS011;395;48.132;11.608;2023-06-22T14:06:27;11.17;;;7.70;;
826;SDS011;395;48.132;11.608;2023-06-22T14:08:53;8.87;;;6.23;;
826;SDS011;395;48.132;11.608;2023-06-22T14:11:18;12.40;;;7.07;;
826;SDS011;395;48.132;11.608;2023-06-22T14:13:44;9.23;;;6.40;;
826;SDS011;395;48.132;11.608;2023-06-22T14:16:10;9.20;;;7.07;;
826;SDS011;395;48.132;11.608;2023-06-22T14:18:36;11.03;;;7.10;;
826;SDS011;395;48.132;11.608;2023-06-22T14:21:01;9.00;;;7.50;;
826;SDS011;395;48.132;11.608;2023-06-22T14:23:27;14.97;;;7.10;;
826;SDS011;395;48.132;11.608;2023-06-22T14:25:53;14.57;;;7.07;;
826;SDS011;395;48.132;11.608;2023-06-22T14:28:19;10.30;;;7.00;;
826;SDS011;395;48.132;11.608;2023-06-22T14:30:44;9.90;;;7.40;;
826;SDS011;395;48.132;11.608;2023-06-22T14:33:11;9.70;;;6.77;;
826;SDS011;395;48.132;11.608;2023-06-22T14:35:37;9.33;;;7.00;;
826;SDS011;395;48.132;11.608;2023-06-22T14:38:03;9.47;;;7.20;;
826;SDS011;395;48.132;11.608;2023-06-22T14:40:29;11.70;;;7.37;;
826;SDS011;395;48.132;11.608;2023-06-22T14:42:54;9.23;;;6.33;;
826;SDS011;395;48.132;11.608;2023-06-22T14:45:21;9.27;;;6.97;;
826;SDS011;395;48.132;11.608;2023-06-22T14:47:48;12.90;;;7.43;;
826;SDS011;395;48.132;11.608;2023-06-22T14:50:14;12.23;;;6.80;;
826;SDS011;395;48.132;11.608;2023-06-22T14:52:40;11.23;;;7.33;;
826;SDS011;395;48.132;11.608;2023-06-22T14:55:05;12.43;;;6.77;;
826;SDS011;395;48.132;11.608;2023-06-22T14:57:32;11.37;;;6.57;;
826;SDS011;395;48.132;11.608;2023-06-22T14:59:57;8.80;;;6.13;;
826;SDS011;395;48.132;11.608;2023-06-22T15:02:23;11.60;;;6.80;;
826;SDS011;395;48.132;11.608;2023-06-22T15:04:49;9.47;;;6.80;;
826;SDS011;395;48.132;11.608;2023-06-22T15:07:14;10.93;;;6.40;;
826;SDS011;395;48.132;11.608;2023-06-22T15:09:40;9.87;;;6.73;;
826;SDS011;395;48.132;11.608;2023-06-22T15:12:08;10.77;;;6.00;;
826;SDS011;395;48.132;11.608;2023-06-22T15:14:37;8.70;;;6.67;;
826;SDS011;395;48.132;11.608;2023-06-22T15:17:05;9.63;;;7.10;;
826;SDS011;395;48.132;11.608;2023-06-22T15:19:31;10.57;;;8.13;;
826;SDS011;395;48.132;11.608;2023-06-22T15:21:57;11.00;;;7.10;;
826;SDS011;395;48.132;11.608;2023-06-22T15:24:22;13.10;;;7.23;;
826;SDS011;395;48.132;11.608;2023-06-22T15:26:48;9.70;;;6.63;;